createdAt,value
2023-05-20T00:01:50.706Z,12.05
2023-05-20T00:04:17.377Z,12.29
2023-05-20T00:06:44.124Z,12.41
2023-05-20T00:09:11.105Z,12.36
2023-05-20T00:11:37.765Z,12.44
2023-05-20T00:14:04.518Z,12.47
2023-05-20T00:16:31.272Z,12.42
2023-05-20T00:18:58.111Z,12.17
2023-05-20T00:21:24.781Z,12.20
2023-05-20T00:23:51.864Z,12.29
2023-05-20T00:26:18.858Z,12.48
2023-05-20T00:28:45.583Z,12.20
2023-05-20T00:31:12.315Z,12.04
2023-05-20T00:33:39.128Z,12.25
2023-05-20T00:36:06.402Z,11.96
2023-05-20T00:38:34.287Z,12.13
2023-05-20T00:41:01.026Z,12.40
2023-05-20T00:43:27.706Z,12.31
2023-05-20T00:45:54.448Z,12.13
2023-05-20T00:48:22.173Z,12.24
2023-05-20T00:50:50.204Z,12.19
2023-05-20T00:53:24.668Z,12.24
2023-05-20T00:55:51.443Z,12.06
2023-05-20T00:58:18.264Z,12.07
2023-05-20T01:00:45.117Z,12.22
2023-05-20T01:03:13.191Z,12.33
2023-05-20T01:05:42.261Z,12.32
2023-05-20T01:08:09.560Z,12.23
2023-05-20T01:10:41.976Z,12.23
2023-05-20T01:13:16.362Z,11.91
2023-05-20T01:15:48.324Z,12.06
2023-05-20T01:18:18.495Z,11.95
2023-05-20T01:20:49.828Z,12.09
2023-05-20T01:23:17.389Z,12.18
2023-05-20T01:25:44.025Z,12.22
2023-05-20T01:28:18.214Z,11.62
2023-05-20T01:30:51.391Z,12.04
2023-05-20T01:33:21.124Z,11.95
2023-05-20T01:35:47.972Z,12.01
2023-05-20T01:38:17.959Z,12.02
2023-05-20T01:40:45.673Z,11.87
2023-05-20T01:43:15.092Z,11.91
2023-05-20T01:45:43.690Z,11.91
2023-05-20T01:48:14.696Z,11.90
2023-05-20T01:50:41.373Z,11.86
2023-05-20T01:53:11.062Z,11.92
2023-05-20T01:55:37.942Z,11.88
2023-05-20T01:58:05.045Z,11.72
2023-05-20T02:00:34.234Z,11.47
2023-05-20T02:03:01.118Z,11.25
2023-05-20T02:05:27.857Z,11.19
2023-05-20T02:07:54.852Z,11.66
2023-05-20T02:10:21.534Z,11.73
2023-05-20T02:12:49.514Z,11.64
2023-05-20T02:15:16.405Z,11.56
2023-05-20T02:17:43.865Z,11.68
2023-05-20T02:20:11.948Z,11.71
2023-05-20T02:22:38.707Z,11.59
2023-05-20T02:25:05.943Z,11.48
2023-05-20T02:27:32.709Z,11.55
2023-05-20T02:30:00.605Z,11.53
2023-05-20T02:32:29.013Z,11.26
2023-05-20T02:34:55.887Z,11.65
2023-05-20T02:37:22.601Z,11.46
2023-05-20T02:39:49.272Z,11.32
2023-05-20T02:42:15.996Z,11.20
2023-05-20T02:44:42.603Z,11.46
2023-05-20T02:47:09.242Z,10.85
2023-05-20T02:49:36.241Z,11.46
2023-05-20T02:52:02.947Z,11.24
2023-05-20T02:54:29.673Z,11.44
2023-05-20T02:56:56.307Z,11.36
2023-05-20T02:59:22.978Z,11.50
2023-05-20T03:01:49.703Z,11.45
2023-05-20T03:04:16.378Z,11.48
2023-05-20T03:06:44.720Z,11.30
2023-05-20T03:09:11.661Z,11.32
2023-05-20T03:11:38.348Z,11.41
2023-05-20T03:14:04.929Z,11.10
2023-05-20T03:16:31.692Z,11.57
2023-05-20T03:18:58.370Z,11.62
2023-05-20T03:21:25.447Z,11.30
2023-05-20T03:23:52.081Z,11.55
2023-05-20T03:26:18.784Z,11.33
2023-05-20T03:28:45.682Z,11.26
2023-05-20T03:31:12.630Z,11.51
2023-05-20T03:33:39.404Z,11.50
2023-05-20T03:36:06.828Z,11.16
2023-05-20T03:38:33.465Z,11.20
2023-05-20T03:41:00.147Z,11.10
2023-05-20T03:43:27.340Z,11.50
2023-05-20T03:45:53.913Z,11.48
2023-05-20T03:48:20.907Z,11.57
2023-05-20T03:50:47.665Z,11.52
2023-05-20T03:53:14.326Z,11.61
2023-05-20T03:55:41.668Z,11.69
2023-05-20T03:58:08.781Z,11.36
2023-05-20T04:00:35.814Z,11.42
2023-05-20T04:03:03.304Z,11.79
2023-05-20T04:05:29.984Z,11.56
2023-05-20T04:07:57.648Z,11.26
2023-05-20T04:10:24.358Z,11.63
2023-05-20T04:12:51.084Z,11.73
2023-05-20T04:15:17.794Z,11.40
2023-05-20T04:17:45.338Z,11.50
2023-05-20T04:20:12.346Z,11.94
2023-05-20T04:22:39.948Z,11.96
2023-05-20T04:25:07.178Z,11.96
2023-05-20T04:27:34.177Z,11.87
2023-05-20T04:30:02.571Z,12.03
2023-05-20T04:32:29.429Z,12.10
2023-05-20T04:34:56.294Z,11.99
2023-05-20T04:37:23.089Z,12.15
2023-05-20T04:39:50.156Z,12.13
2023-05-20T04:42:21.671Z,12.16
2023-05-20T04:44:48.981Z,12.24
2023-05-20T04:47:15.816Z,12.04
2023-05-20T04:49:42.623Z,12.20
2023-05-20T04:52:09.284Z,12.46
2023-05-20T04:54:36.043Z,12.56
2023-05-20T04:57:03.079Z,12.55
2023-05-20T04:59:29.711Z,12.43
2023-05-20T05:01:56.352Z,12.37
2023-05-20T05:04:23.396Z,12.60
2023-05-20T05:06:50.109Z,12.55
2023-05-20T05:09:16.966Z,12.74
2023-05-20T05:11:43.643Z,12.81
2023-05-20T05:14:10.380Z,12.83
2023-05-20T05:16:37.107Z,12.88
2023-05-20T05:19:03.759Z,12.94
2023-05-20T05:21:30.478Z,13.04
2023-05-20T05:23:58.510Z,13.04
2023-05-20T05:26:25.173Z,13.04
2023-05-20T05:28:51.889Z,13.14
2023-05-20T05:31:18.510Z,13.24
2023-05-20T05:33:45.109Z,13.24
2023-05-20T05:36:11.811Z,13.13
2023-05-20T05:38:38.436Z,13.33
2023-05-20T05:41:05.034Z,13.30
2023-05-20T05:43:31.811Z,12.78
2023-05-20T05:45:58.465Z,13.16
2023-05-20T05:48:25.240Z,13.18
2023-05-20T05:50:52.095Z,13.42
2023-05-20T05:53:18.836Z,13.23
2023-05-20T05:55:48.477Z,13.28
2023-05-20T05:58:15.318Z,13.13
2023-05-20T06:00:42.117Z,13.45
2023-05-20T06:03:08.902Z,13.24
2023-05-20T06:05:35.850Z,13.56
2023-05-20T06:08:02.936Z,13.71
2023-05-20T06:10:29.595Z,13.39
2023-05-20T06:12:56.275Z,13.42
2023-05-20T06:15:22.850Z,13.62
2023-05-20T06:17:49.518Z,13.58
2023-05-20T06:20:16.449Z,14.00
2023-05-20T06:22:43.126Z,14.13
2023-05-20T06:25:10.513Z,14.07
2023-05-20T06:27:37.176Z,13.94
2023-05-20T06:30:04.107Z,14.01
2023-05-20T06:32:30.876Z,14.10
2023-05-20T06:34:57.592Z,14.11
2023-05-20T06:37:24.677Z,14.53
2023-05-20T06:39:54.168Z,14.19
2023-05-20T06:42:21.665Z,14.36
2023-05-20T06:44:48.408Z,14.77
2023-05-20T06:47:17.055Z,14.98
2023-05-20T06:49:47.401Z,15.12
2023-05-20T06:52:14.377Z,14.81
2023-05-20T06:54:41.958Z,15.22
2023-05-20T06:57:09.155Z,15.06
2023-05-20T06:59:37.210Z,15.50
2023-05-20T07:02:04.536Z,15.64
2023-05-20T07:04:31.196Z,15.84
2023-05-20T07:06:58.086Z,15.99
2023-05-20T07:09:24.808Z,16.10
2023-05-20T07:11:51.618Z,15.80
2023-05-20T07:14:18.413Z,16.24
2023-05-20T07:16:45.033Z,16.25
2023-05-20T07:19:11.799Z,16.15
2023-05-20T07:21:38.676Z,16.09
2023-05-20T07:24:08.494Z,16.31
2023-05-20T07:26:36.636Z,16.31
2023-05-20T07:29:06.733Z,16.36
2023-05-20T07:31:33.606Z,16.19
2023-05-20T07:34:01.322Z,16.32
2023-05-20T07:36:28.562Z,16.58
2023-05-20T07:39:02.664Z,16.67
2023-05-20T07:41:30.183Z,16.75
2023-05-20T07:43:56.863Z,16.76
2023-05-20T07:46:23.612Z,16.78
2023-05-20T07:48:50.348Z,16.83
2023-05-20T07:51:17.011Z,17.25
2023-05-20T07:53:43.678Z,17.44
2023-05-20T07:56:10.373Z,17.28
2023-05-20T07:58:37.341Z,16.60
2023-05-20T08:01:04.235Z,17.28
2023-05-20T08:03:30.862Z,17.61
2023-05-20T08:05:57.584Z,17.70
2023-05-20T08:08:24.296Z,17.70
2023-05-20T08:10:52.662Z,17.77
2023-05-20T08:13:19.266Z,18.03
2023-05-20T08:15:45.968Z,17.83
2023-05-20T08:18:12.884Z,17.93
2023-05-20T08:20:39.826Z,17.40
2023-05-20T08:23:06.701Z,17.79
2023-05-20T08:25:33.547Z,17.67
2023-05-20T08:28:07.454Z,17.63
2023-05-20T08:30:34.873Z,17.69
2023-05-20T08:33:02.100Z,18.37
2023-05-20T08:35:29.196Z,18.22
2023-05-20T08:37:55.892Z,18.89
2023-05-20T08:40:23.352Z,18.79
2023-05-20T08:42:53.146Z,18.95
2023-05-20T08:45:24.255Z,19.31
2023-05-20T08:47:51.007Z,19.38
2023-05-20T08:50:17.939Z,19.48
2023-05-20T08:52:49.489Z,19.71
2023-05-20T08:55:22.984Z,18.94
2023-05-20T08:57:51.681Z,19.90
2023-05-20T09:00:18.755Z,19.54
2023-05-20T09:02:46.449Z,19.50
2023-05-20T09:05:13.546Z,19.02
2023-05-20T09:07:40.298Z,19.21
2023-05-20T09:10:07.336Z,19.14
2023-05-20T09:12:33.938Z,19.50
2023-05-20T09:15:00.853Z,19.43
2023-05-20T09:17:27.789Z,19.29
2023-05-20T09:19:54.764Z,19.58
2023-05-20T09:22:25.867Z,19.70
2023-05-20T09:24:53.010Z,19.84
2023-05-20T09:27:21.246Z,19.85
2023-05-20T09:29:51.881Z,20.14
2023-05-20T09:32:21.776Z,20.45
2023-05-20T09:34:48.919Z,20.12
2023-05-20T09:37:21.805Z,20.18
2023-05-20T09:39:59.907Z,19.68
2023-05-20T09:42:38.530Z,19.77
2023-05-20T09:45:07.152Z,19.63
2023-05-20T09:47:34.365Z,19.62
2023-05-20T09:50:04.078Z,19.60
2023-05-20T09:52:34.656Z,19.84
2023-05-20T09:55:05.891Z,19.96
2023-05-20T09:57:36.965Z,20.17
2023-05-20T10:00:06.464Z,20.41
2023-05-20T10:02:36.788Z,20.41
2023-05-20T10:05:08.004Z,20.23
2023-05-20T10:08:05.993Z,20.47
2023-05-20T10:10:52.162Z,20.18
2023-05-20T10:14:04.977Z,20.11
2023-05-20T10:17:02.818Z,19.80
2023-05-20T10:19:32.576Z,20.28
2023-05-20T10:22:02.294Z,20.49
2023-05-20T10:24:41.372Z,20.23
2023-05-20T10:27:17.321Z,20.59
2023-05-20T10:29:52.252Z,20.22
2023-05-20T10:32:30.046Z,20.36
2023-05-20T10:35:02.024Z,20.54
2023-05-20T10:37:31.179Z,20.51
2023-05-20T10:40:08.646Z,20.23
2023-05-20T10:42:35.284Z,20.38
2023-05-20T10:45:01.869Z,20.52
2023-05-20T10:47:28.640Z,20.61
2023-05-20T10:49:55.703Z,21.05
2023-05-20T10:52:24.017Z,20.81
2023-05-20T10:54:53.980Z,20.99
2023-05-20T10:57:21.678Z,21.37
2023-05-20T10:59:49.260Z,21.24
2023-05-20T11:02:17.191Z,21.76
2023-05-20T11:04:44.847Z,21.82
2023-05-20T11:07:11.877Z,21.43
2023-05-20T11:09:39.055Z,21.53
2023-05-20T11:12:06.415Z,21.08
2023-05-20T11:14:33.348Z,20.75
2023-05-20T11:17:00.678Z,20.85
2023-05-20T11:19:28.210Z,20.71
2023-05-20T11:21:55.218Z,20.38
2023-05-20T11:24:32.265Z,20.39
2023-05-20T11:27:02.402Z,20.09
2023-05-20T11:29:29.336Z,20.55
2023-05-20T11:31:56.090Z,20.98
2023-05-20T11:34:25.811Z,21.19
2023-05-20T11:37:00.113Z,20.93
2023-05-20T11:39:30.467Z,20.64
2023-05-20T11:41:58.375Z,20.34
2023-05-20T11:44:25.277Z,20.59
2023-05-20T11:46:52.185Z,20.37
2023-05-20T11:49:18.872Z,20.46
2023-05-20T11:51:45.639Z,20.42
2023-05-20T11:54:12.331Z,20.31
2023-05-20T11:56:41.572Z,20.10
2023-05-20T11:59:10.746Z,20.13
2023-05-20T12:01:43.701Z,20.21
2023-05-20T12:04:11.123Z,20.32
2023-05-20T12:06:37.892Z,20.47
2023-05-20T12:09:07.384Z,20.29
2023-05-20T12:11:39.970Z,20.69
2023-05-20T12:14:06.918Z,20.30
2023-05-20T12:16:34.864Z,20.09
2023-05-20T12:19:01.819Z,20.45
2023-05-20T12:21:29.897Z,20.23
2023-05-20T12:23:59.403Z,20.05
2023-05-20T12:26:27.475Z,19.77
2023-05-20T12:28:54.535Z,19.57
2023-05-20T12:31:21.590Z,20.53
2023-05-20T12:33:48.378Z,20.92
2023-05-20T12:36:15.460Z,21.34
2023-05-20T12:38:42.214Z,21.83
2023-05-20T12:41:08.910Z,22.51
2023-05-20T12:43:37.571Z,22.66
2023-05-20T12:46:05.150Z,22.35
2023-05-20T12:48:32.019Z,21.35
2023-05-20T12:50:58.856Z,21.53
2023-05-20T12:53:25.600Z,21.57
2023-05-20T12:55:52.541Z,20.46
2023-05-20T12:58:19.348Z,21.01
2023-05-20T13:00:46.095Z,21.10
2023-05-20T13:03:12.777Z,21.27
2023-05-20T13:05:39.505Z,21.12
2023-05-20T13:08:06.459Z,20.95
2023-05-20T13:10:33.730Z,21.33
2023-05-20T13:13:00.537Z,20.67
2023-05-20T13:15:27.293Z,21.06
2023-05-20T13:17:54.625Z,21.37
2023-05-20T13:20:21.696Z,21.14
2023-05-20T13:22:50.278Z,21.02
2023-05-20T13:25:17.064Z,21.81
2023-05-20T13:27:43.952Z,21.77
2023-05-20T13:30:11.092Z,22.03
2023-05-20T13:32:37.920Z,21.43
2023-05-20T13:35:05.145Z,21.47
2023-05-20T13:37:31.735Z,21.12
2023-05-20T13:39:58.581Z,20.71
2023-05-20T13:42:25.245Z,20.30
2023-05-20T13:44:51.906Z,20.80
2023-05-20T13:47:18.569Z,20.65
2023-05-20T13:49:45.271Z,20.89
2023-05-20T13:52:11.933Z,20.72
2023-05-20T13:54:38.631Z,20.90
2023-05-20T13:57:08.178Z,21.67
2023-05-20T13:59:35.399Z,21.95
2023-05-20T14:02:02.677Z,22.00
2023-05-20T14:04:31.322Z,21.98
2023-05-20T14:06:59.492Z,21.56
2023-05-20T14:09:26.503Z,21.67
2023-05-20T14:11:53.316Z,21.72
2023-05-20T14:14:19.948Z,21.76
2023-05-20T14:16:46.736Z,21.23
2023-05-20T14:19:13.514Z,21.57
2023-05-20T14:21:40.176Z,21.44
2023-05-20T14:24:07.149Z,21.20
2023-05-20T14:26:34.686Z,21.74
2023-05-20T14:29:01.478Z,21.63
2023-05-20T14:31:28.393Z,21.23
2023-05-20T14:33:55.170Z,20.87
2023-05-20T14:36:21.758Z,20.96
2023-05-20T14:38:49.598Z,21.17
2023-05-20T14:41:16.670Z,21.36
2023-05-20T14:43:43.318Z,21.35
2023-05-20T14:46:10.495Z,21.11
2023-05-20T14:48:37.483Z,20.94
2023-05-20T14:51:04.343Z,20.79
2023-05-20T14:53:31.074Z,20.78
2023-05-20T14:55:57.884Z,20.48
2023-05-20T14:58:24.721Z,20.52
2023-05-20T15:00:53.600Z,20.10
2023-05-20T15:03:20.588Z,19.97
2023-05-20T15:05:47.255Z,19.75
2023-05-20T15:08:13.925Z,19.18
2023-05-20T15:10:40.745Z,19.26
2023-05-20T15:13:07.759Z,19.10
2023-05-20T15:15:34.620Z,19.15
2023-05-20T15:18:01.581Z,19.58
2023-05-20T15:20:28.343Z,19.31
2023-05-20T15:22:55.181Z,19.71
2023-05-20T15:25:21.829Z,19.73
2023-05-20T15:27:48.497Z,20.06
2023-05-20T15:30:15.805Z,19.67
2023-05-20T15:32:43.008Z,19.53
2023-05-20T15:35:09.964Z,19.79
2023-05-20T15:37:36.589Z,19.93
2023-05-20T15:40:03.385Z,19.87
2023-05-20T15:42:30.131Z,19.85
2023-05-20T15:44:57.181Z,19.64
2023-05-20T15:47:23.838Z,19.94
2023-05-20T15:49:50.967Z,19.97
2023-05-20T15:52:17.658Z,19.92
2023-05-20T15:54:44.454Z,19.91
2023-05-20T15:57:11.167Z,19.76
2023-05-20T15:59:37.767Z,19.68
2023-05-20T16:02:04.542Z,19.61
2023-05-20T16:04:31.248Z,19.50
2023-05-20T16:06:57.946Z,20.01
2023-05-20T16:09:24.661Z,19.99
2023-05-20T16:11:51.332Z,19.80
2023-05-20T16:14:17.953Z,20.02
2023-05-20T16:16:44.851Z,19.98
2023-05-20T16:19:11.635Z,19.64
2023-05-20T16:21:38.435Z,19.33
2023-05-20T16:24:05.307Z,19.53
2023-05-20T16:26:32.217Z,18.85
2023-05-20T16:28:58.885Z,19.18
2023-05-20T16:31:26.811Z,19.17
2023-05-20T16:33:53.667Z,18.95
2023-05-20T16:36:20.396Z,19.23
2023-05-20T16:38:47.730Z,18.94
2023-05-20T16:41:16.115Z,19.25
2023-05-20T16:43:43.393Z,18.85
2023-05-20T16:46:10.370Z,18.19
2023-05-20T16:48:37.195Z,18.98
2023-05-20T16:51:04.193Z,18.87
2023-05-20T16:53:30.995Z,18.80
2023-05-20T16:55:57.736Z,18.29
2023-05-20T16:58:24.317Z,18.64
2023-05-20T17:00:51.037Z,18.42
2023-05-20T17:03:18.189Z,18.41
2023-05-20T17:05:44.917Z,18.65
2023-05-20T17:08:11.634Z,18.68
2023-05-20T17:10:38.343Z,18.50
2023-05-20T17:13:05.195Z,18.65
2023-05-20T17:15:33.065Z,18.50
2023-05-20T17:17:59.843Z,18.28
2023-05-20T17:20:26.546Z,18.35
2023-05-20T17:22:53.174Z,18.61
2023-05-20T17:25:19.887Z,18.53
2023-05-20T17:27:46.502Z,18.54
2023-05-20T17:30:13.503Z,18.00
2023-05-20T17:32:40.830Z,18.40
2023-05-20T17:35:08.654Z,18.34
2023-05-20T17:37:35.916Z,18.43
2023-05-20T17:40:05.962Z,18.38
2023-05-20T17:42:33.348Z,18.29
2023-05-20T17:45:00.009Z,17.98
2023-05-20T17:47:26.683Z,18.34
2023-05-20T17:49:53.374Z,17.93
2023-05-20T17:52:20.018Z,18.25
2023-05-20T17:54:46.739Z,18.18
2023-05-20T17:57:13.389Z,18.26
2023-05-20T17:59:42.107Z,17.87
2023-05-20T18:02:09.062Z,18.06
2023-05-20T18:04:35.983Z,18.05
2023-05-20T18:07:04.132Z,17.96
2023-05-20T18:09:31.268Z,18.20
2023-05-20T18:11:57.958Z,18.01
2023-05-20T18:14:26.664Z,18.09
2023-05-20T18:16:54.905Z,17.80
2023-05-20T18:19:21.682Z,18.00
2023-05-20T18:21:48.409Z,17.56
2023-05-20T18:24:16.850Z,17.87
2023-05-20T18:26:43.757Z,17.91
2023-05-20T18:29:12.564Z,17.96
2023-05-20T18:31:40.383Z,17.78
2023-05-20T18:34:08.038Z,17.53
2023-05-20T18:36:34.966Z,17.48
2023-05-20T18:39:01.640Z,17.51
2023-05-20T18:41:43.277Z,17.73
2023-05-20T18:44:14.170Z,17.44
2023-05-20T18:46:41.161Z,17.52
2023-05-20T18:49:08.488Z,17.18
2023-05-20T18:51:35.105Z,17.30
2023-05-20T18:54:01.865Z,17.24
2023-05-20T18:56:28.773Z,17.34
2023-05-20T18:58:55.760Z,17.28
2023-05-20T19:01:22.528Z,17.27
2023-05-20T19:03:49.241Z,17.18
2023-05-20T19:06:16.819Z,16.87
2023-05-20T19:08:44.576Z,16.47
2023-05-20T19:11:11.281Z,16.41
2023-05-20T19:13:37.949Z,16.79
2023-05-20T19:16:04.817Z,16.47
2023-05-20T19:18:31.461Z,16.65
2023-05-20T19:20:58.195Z,16.46
2023-05-20T19:23:24.827Z,16.29
2023-05-20T19:25:51.584Z,16.08
2023-05-20T19:28:18.474Z,15.95
2023-05-20T19:30:45.215Z,16.09
2023-05-20T19:33:14.891Z,15.63
2023-05-20T19:35:41.570Z,15.79
2023-05-20T19:38:08.271Z,16.04
2023-05-20T19:40:35.729Z,16.01
2023-05-20T19:43:05.246Z,15.64
2023-05-20T19:45:32.500Z,15.89
2023-05-20T19:47:59.337Z,15.69
2023-05-20T19:50:26.958Z,15.67
2023-05-20T19:52:55.167Z,15.88
2023-05-20T19:55:21.959Z,15.71
2023-05-20T19:57:53.388Z,15.79
2023-05-20T20:00:23.155Z,15.83
2023-05-20T20:02:50.411Z,15.88
2023-05-20T20:05:17.305Z,15.31
2023-05-20T20:07:43.957Z,15.68
2023-05-20T20:10:11.126Z,15.66
2023-05-20T20:12:37.777Z,15.34
2023-05-20T20:15:04.784Z,15.51
2023-05-20T20:17:33.852Z,15.49
2023-05-20T20:20:01.233Z,15.64
2023-05-20T20:22:28.051Z,15.86
2023-05-20T20:24:54.693Z,15.46
2023-05-20T20:27:23.883Z,15.58
2023-05-20T20:29:50.869Z,15.60
2023-05-20T20:32:17.678Z,15.43
2023-05-20T20:34:46.164Z,15.62
2023-05-20T20:37:15.383Z,15.44
2023-05-20T20:39:42.316Z,15.53
2023-05-20T20:42:08.982Z,15.23
2023-05-20T20:44:35.620Z,15.37
2023-05-20T20:47:04.514Z,15.32
2023-05-20T20:49:32.276Z,15.54
2023-05-20T20:51:59.125Z,15.25
2023-05-20T20:54:26.677Z,15.46
2023-05-20T20:56:56.832Z,15.32
2023-05-20T20:59:26.746Z,15.38
2023-05-20T21:01:54.261Z,15.40
2023-05-20T21:04:21.273Z,15.33
2023-05-20T21:06:47.989Z,15.33
2023-05-20T21:09:15.395Z,15.30
2023-05-20T21:11:42.543Z,15.41
2023-05-20T21:14:10.093Z,15.10
2023-05-20T21:16:36.786Z,14.96
2023-05-20T21:19:03.863Z,15.12
2023-05-20T21:21:31.857Z,15.24
2023-05-20T21:23:58.649Z,14.86
2023-05-20T21:26:25.902Z,14.82
2023-05-20T21:28:53.023Z,14.74
2023-05-20T21:31:20.040Z,14.87
2023-05-20T21:33:46.717Z,14.90
2023-05-20T21:36:13.418Z,14.87
2023-05-20T21:38:40.197Z,15.04
2023-05-20T21:41:07.059Z,14.66
2023-05-20T21:43:33.713Z,14.97
2023-05-20T21:46:00.467Z,14.76
2023-05-20T21:48:27.230Z,14.42
2023-05-20T21:50:53.992Z,14.61
2023-05-20T21:53:20.729Z,14.54
2023-05-20T21:55:47.376Z,14.58
2023-05-20T21:58:14.030Z,14.40
2023-05-20T22:00:44.398Z,14.46
2023-05-20T22:03:12.344Z,14.29
2023-05-20T22:05:39.077Z,14.67
2023-05-20T22:08:05.932Z,14.34
2023-05-20T22:10:34.363Z,14.47
2023-05-20T22:13:02.286Z,14.65
2023-05-20T22:15:29.177Z,14.27
2023-05-20T22:17:55.991Z,14.52
2023-05-20T22:20:22.883Z,14.57
2023-05-20T22:22:49.713Z,12.40
2023-05-20T22:25:17.421Z,14.01
2023-05-20T22:27:44.120Z,14.55
2023-05-20T22:30:12.393Z,14.57
2023-05-20T22:32:39.484Z,14.69
2023-05-20T22:35:06.785Z,14.64
2023-05-20T22:37:33.676Z,14.50
2023-05-20T22:40:00.711Z,14.45
2023-05-20T22:42:27.322Z,14.43
2023-05-20T22:44:53.989Z,14.21
2023-05-20T22:47:20.827Z,14.54
2023-05-20T22:49:47.428Z,14.58
2023-05-20T22:52:14.611Z,14.53
2023-05-20T22:54:41.448Z,14.20
2023-05-20T22:57:08.453Z,14.46
2023-05-20T22:59:36.766Z,14.45
2023-05-20T23:02:04.086Z,14.51
2023-05-20T23:04:30.774Z,14.44
2023-05-20T23:06:59.456Z,14.22
2023-05-20T23:09:26.392Z,14.39
2023-05-20T23:11:52.985Z,14.38
2023-05-20T23:14:20.294Z,14.27
2023-05-20T23:16:47.215Z,14.18
2023-05-20T23:19:14.236Z,14.19
2023-05-20T23:21:40.887Z,13.93
2023-05-20T23:24:07.666Z,14.40
2023-05-20T23:26:34.732Z,14.40
2023-05-20T23:29:01.708Z,14.24
2023-05-20T23:31:30.174Z,14.35
2023-05-20T23:33:59.919Z,14.00
2023-05-20T23:36:29.173Z,14.17
2023-05-20T23:38:58.957Z,13.93
2023-05-20T23:41:26.081Z,14.27
2023-05-20T23:43:52.728Z,13.74
2023-05-20T23:46:19.406Z,14.25
2023-05-20T23:48:48.464Z,14.10
2023-05-20T23:51:16.490Z,14.25
2023-05-20T23:53:44.732Z,14.16
2023-05-20T23:56:11.625Z,13.15
2023-05-20T23:58:41.029Z,14.03
